sensor_id;sensor_type;location;lat;lon;timestamp;P1;durP1;ratioP1;P2;durP2;ratioP2
14858;SDS011;7521;51.700;6.874;2024-03-29T00:01:43;3.50;;;0.80;;
14858;SDS011;7521;51.700;6.874;2024-03-29T00:04:49;1.98;;;0.80;;
14858;SDS011;7521;51.700;6.874;2024-03-29T00:07:54;5.75;;;0.95;;
14858;SDS011;7521;51.700;6.874;2024-03-29T00:10:59;7.40;;;1.40;;
14858;SDS011;7521;51.700;6.874;2024-03-29T00:14:04;7.05;;;1.10;;
14858;SDS011;7521;51.700;6.874;2024-03-29T00:17:09;2.53;;;0.77;;
14858;SDS011;7521;51.700;6.874;2024-03-29T00:20:14;6.65;;;0.95;;
14858;SDS011;7521;51.700;6.874;2024-03-29T00:23:20;8.53;;;1.07;;
14858;SDS011;7521;51.700;6.874;2024-03-29T00:26:25;4.53;;;0.60;;
14858;SDS011;7521;51.700;6.874;2024-03-29T00:29:31;4.63;;;1.07;;
14858;SDS011;7521;51.700;6.874;2024-03-29T00:32:37;2.60;;;0.87;;
14858;SDS011;7521;51.700;6.874;2024-03-29T00:35:42;4.00;;;1.02;;
14858;SDS011;7521;51.700;6.874;2024-03-29T00:38:48;3.80;;;0.70;;
14858;SDS011;7521;51.700;6.874;2024-03-29T00:41:53;4.88;;;0.80;;
14858;SDS011;7521;51.700;6.874;2024-03-29T00:44:58;5.75;;;1.02;;
14858;SDS011;7521;51.700;6.874;2024-03-29T00:48:03;4.00;;;0.73;;
14858;SDS011;7521;51.700;6.874;2024-03-29T00:51:08;4.30;;;0.80;;
14858;SDS011;7521;51.700;6.874;2024-03-29T00:54:14;2.90;;;1.00;;
14858;SDS011;7521;51.700;6.874;2024-03-29T00:57:19;3.77;;;0.97;;
14858;SDS011;7521;51.700;6.874;2024-03-29T01:00:24;3.65;;;1.17;;
14858;SDS011;7521;51.700;6.874;2024-03-29T01:03:29;3.27;;;0.77;;
14858;SDS011;7521;51.700;6.874;2024-03-29T01:06:36;2.30;;;0.87;;
14858;SDS011;7521;51.700;6.874;2024-03-29T01:09:41;2.23;;;0.80;;
14858;SDS011;7521;51.700;6.874;2024-03-29T01:12:48;5.13;;;0.83;;
14858;SDS011;7521;51.700;6.874;2024-03-29T01:15:53;3.53;;;0.93;;
14858;SDS011;7521;51.700;6.874;2024-03-29T01:18:58;4.65;;;0.82;;
14858;SDS011;7521;51.700;6.874;2024-03-29T01:22:04;4.80;;;1.00;;
14858;SDS011;7521;51.700;6.874;2024-03-29T01:25:09;7.60;;;1.53;;
14858;SDS011;7521;51.700;6.874;2024-03-29T01:28:16;2.00;;;0.87;;
14858;SDS011;7521;51.700;6.874;2024-03-29T01:31:22;2.60;;;0.68;;
14858;SDS011;7521;51.700;6.874;2024-03-29T01:34:27;3.43;;;0.70;;
14858;SDS011;7521;51.700;6.874;2024-03-29T01:37:32;3.93;;;1.00;;
14858;SDS011;7521;51.700;6.874;2024-03-29T01:40:39;5.10;;;0.83;;
14858;SDS011;7521;51.700;6.874;2024-03-29T01:43:44;3.97;;;0.80;;
14858;SDS011;7521;51.700;6.874;2024-03-29T01:46:49;2.50;;;0.73;;
14858;SDS011;7521;51.700;6.874;2024-03-29T01:49:54;5.50;;;0.63;;
14858;SDS011;7521;51.700;6.874;2024-03-29T01:52:59;2.40;;;0.70;;
14858;SDS011;7521;51.700;6.874;2024-03-29T01:56:05;2.10;;;0.57;;
14858;SDS011;7521;51.700;6.874;2024-03-29T01:59:14;3.87;;;0.70;;
14858;SDS011;7521;51.700;6.874;2024-03-29T02:02:20;2.57;;;0.50;;
14858;SDS011;7521;51.700;6.874;2024-03-29T02:05:27;3.10;;;0.73;;
14858;SDS011;7521;51.700;6.874;2024-03-29T02:08:33;4.65;;;0.73;;
14858;SDS011;7521;51.700;6.874;2024-03-29T02:11:38;2.80;;;0.67;;
14858;SDS011;7521;51.700;6.874;2024-03-29T02:14:44;3.95;;;0.77;;
14858;SDS011;7521;51.700;6.874;2024-03-29T02:17:49;1.65;;;0.60;;
14858;SDS011;7521;51.700;6.874;2024-03-29T02:20:56;3.37;;;0.67;;
14858;SDS011;7521;51.700;6.874;2024-03-29T02:24:07;3.27;;;0.57;;
14858;SDS011;7521;51.700;6.874;2024-03-29T02:27:13;2.60;;;0.73;;
14858;SDS011;7521;51.700;6.874;2024-03-29T02:30:18;4.40;;;0.70;;
14858;SDS011;7521;51.700;6.874;2024-03-29T02:33:23;1.85;;;0.80;;
14858;SDS011;7521;51.700;6.874;2024-03-29T02:36:29;4.77;;;1.27;;
14858;SDS011;7521;51.700;6.874;2024-03-29T02:39:34;3.95;;;0.93;;
14858;SDS011;7521;51.700;6.874;2024-03-29T02:42:39;1.70;;;0.70;;
14858;SDS011;7521;51.700;6.874;2024-03-29T02:45:44;1.50;;;0.60;;
14858;SDS011;7521;51.700;6.874;2024-03-29T02:48:49;4.83;;;0.97;;
14858;SDS011;7521;51.700;6.874;2024-03-29T02:51:55;2.13;;;0.40;;
14858;SDS011;7521;51.700;6.874;2024-03-29T02:55:00;3.60;;;0.77;;
14858;SDS011;7521;51.700;6.874;2024-03-29T02:58:05;2.57;;;0.60;;
14858;SDS011;7521;51.700;6.874;2024-03-29T03:01:11;3.80;;;0.60;;
14858;SDS011;7521;51.700;6.874;2024-03-29T03:04:17;3.17;;;1.00;;
14858;SDS011;7521;51.700;6.874;2024-03-29T03:07:22;1.63;;;0.90;;
14858;SDS011;7521;51.700;6.874;2024-03-29T03:10:48;2.03;;;0.53;;
14858;SDS011;7521;51.700;6.874;2024-03-29T03:14:06;2.57;;;0.70;;
14858;SDS011;7521;51.700;6.874;2024-03-29T03:17:11;4.35;;;1.05;;
14858;SDS011;7521;51.700;6.874;2024-03-29T03:20:16;2.47;;;0.70;;
14858;SDS011;7521;51.700;6.874;2024-03-29T03:23:21;3.53;;;0.73;;
14858;SDS011;7521;51.700;6.874;2024-03-29T03:26:27;4.03;;;0.80;;
14858;SDS011;7521;51.700;6.874;2024-03-29T03:29:32;1.73;;;0.80;;
14858;SDS011;7521;51.700;6.874;2024-03-29T03:32:37;4.55;;;1.02;;
14858;SDS011;7521;51.700;6.874;2024-03-29T03:35:42;1.75;;;0.73;;
14858;SDS011;7521;51.700;6.874;2024-03-29T03:38:48;2.60;;;0.60;;
14858;SDS011;7521;51.700;6.874;2024-03-29T03:41:53;2.70;;;0.80;;
14858;SDS011;7521;51.700;6.874;2024-03-29T03:44:58;3.95;;;0.98;;
14858;SDS011;7521;51.700;6.874;2024-03-29T03:48:04;2.67;;;0.68;;
14858;SDS011;7521;51.700;6.874;2024-03-29T03:51:09;4.23;;;0.87;;
14858;SDS011;7521;51.700;6.874;2024-03-29T03:54:15;4.18;;;0.95;;
14858;SDS011;7521;51.700;6.874;2024-03-29T03:57:20;2.67;;;1.20;;
14858;SDS011;7521;51.700;6.874;2024-03-29T04:00:25;4.07;;;0.65;;
14858;SDS011;7521;51.700;6.874;2024-03-29T04:03:30;1.58;;;0.98;;
14858;SDS011;7521;51.700;6.874;2024-03-29T04:06:36;2.70;;;0.70;;
14858;SDS011;7521;51.700;6.874;2024-03-29T04:09:41;1.80;;;0.70;;
14858;SDS011;7521;51.700;6.874;2024-03-29T04:12:46;4.40;;;0.90;;
14858;SDS011;7521;51.700;6.874;2024-03-29T04:15:52;2.27;;;0.77;;
14858;SDS011;7521;51.700;6.874;2024-03-29T04:18:57;3.40;;;1.17;;
14858;SDS011;7521;51.700;6.874;2024-03-29T04:22:02;2.15;;;0.90;;
14858;SDS011;7521;51.700;6.874;2024-03-29T04:25:07;2.90;;;0.87;;
14858;SDS011;7521;51.700;6.874;2024-03-29T04:28:12;1.90;;;0.70;;
14858;SDS011;7521;51.700;6.874;2024-03-29T04:31:18;2.27;;;0.63;;
14858;SDS011;7521;51.700;6.874;2024-03-29T04:34:23;2.30;;;0.70;;
14858;SDS011;7521;51.700;6.874;2024-03-29T04:37:28;5.37;;;0.80;;
14858;SDS011;7521;51.700;6.874;2024-03-29T04:40:33;1.92;;;0.68;;
14858;SDS011;7521;51.700;6.874;2024-03-29T04:43:39;2.28;;;0.60;;
14858;SDS011;7521;51.700;6.874;2024-03-29T04:46:44;2.30;;;0.80;;
14858;SDS011;7521;51.700;6.874;2024-03-29T04:49:50;2.88;;;0.60;;
14858;SDS011;7521;51.700;6.874;2024-03-29T04:52:55;3.97;;;0.70;;
14858;SDS011;7521;51.700;6.874;2024-03-29T04:56:00;3.95;;;0.80;;
14858;SDS011;7521;51.700;6.874;2024-03-29T04:59:05;4.37;;;0.80;;
14858;SDS011;7521;51.700;6.874;2024-03-29T05:02:12;3.00;;;0.73;;
14858;SDS011;7521;51.700;6.874;2024-03-29T05:05:17;2.83;;;0.75;;
14858;SDS011;7521;51.700;6.874;2024-03-29T05:08:22;4.93;;;0.70;;
14858;SDS011;7521;51.700;6.874;2024-03-29T05:11:28;3.00;;;0.77;;
14858;SDS011;7521;51.700;6.874;2024-03-29T05:14:33;2.15;;;0.50;;
14858;SDS011;7521;51.700;6.874;2024-03-29T05:17:38;2.40;;;0.70;;
14858;SDS011;7521;51.700;6.874;2024-03-29T05:20:45;2.30;;;0.50;;
14858;SDS011;7521;51.700;6.874;2024-03-29T05:23:56;1.17;;;0.53;;
14858;SDS011;7521;51.700;6.874;2024-03-29T05:27:01;2.45;;;0.70;;
14858;SDS011;7521;51.700;6.874;2024-03-29T05:30:06;3.03;;;0.90;;
14858;SDS011;7521;51.700;6.874;2024-03-29T05:33:12;3.10;;;1.67;;
14858;SDS011;7521;51.700;6.874;2024-03-29T05:36:17;1.30;;;0.80;;
14858;SDS011;7521;51.700;6.874;2024-03-29T05:39:23;3.37;;;0.90;;
14858;SDS011;7521;51.700;6.874;2024-03-29T05:42:29;4.80;;;1.07;;
14858;SDS011;7521;51.700;6.874;2024-03-29T05:45:34;5.57;;;1.47;;
14858;SDS011;7521;51.700;6.874;2024-03-29T05:48:39;2.33;;;1.10;;
14858;SDS011;7521;51.700;6.874;2024-03-29T05:51:45;3.90;;;1.47;;
14858;SDS011;7521;51.700;6.874;2024-03-29T05:54:50;5.80;;;1.47;;
14858;SDS011;7521;51.700;6.874;2024-03-29T05:57:55;4.80;;;1.40;;
14858;SDS011;7521;51.700;6.874;2024-03-29T06:01:00;5.53;;;1.60;;
14858;SDS011;7521;51.700;6.874;2024-03-29T06:04:06;3.10;;;1.37;;
14858;SDS011;7521;51.700;6.874;2024-03-29T06:07:19;4.30;;;1.17;;
14858;SDS011;7521;51.700;6.874;2024-03-29T06:10:24;4.23;;;1.37;;
14858;SDS011;7521;51.700;6.874;2024-03-29T06:13:29;3.33;;;1.60;;
14858;SDS011;7521;51.700;6.874;2024-03-29T06:16:55;4.03;;;1.40;;
14858;SDS011;7521;51.700;6.874;2024-03-29T06:20:19;6.10;;;1.40;;
14858;SDS011;7521;51.700;6.874;2024-03-29T06:23:24;4.83;;;1.50;;
14858;SDS011;7521;51.700;6.874;2024-03-29T06:26:29;5.83;;;1.40;;
14858;SDS011;7521;51.700;6.874;2024-03-29T06:29:34;4.53;;;1.23;;
14858;SDS011;7521;51.700;6.874;2024-03-29T06:32:40;4.00;;;1.20;;
14858;SDS011;7521;51.700;6.874;2024-03-29T06:35:52;3.93;;;1.33;;
14858;SDS011;7521;51.700;6.874;2024-03-29T06:38:57;5.27;;;1.40;;
14858;SDS011;7521;51.700;6.874;2024-03-29T06:42:02;6.68;;;1.38;;
14858;SDS011;7521;51.700;6.874;2024-03-29T06:45:08;2.73;;;1.30;;
14858;SDS011;7521;51.700;6.874;2024-03-29T06:48:15;1.80;;;1.00;;
14858;SDS011;7521;51.700;6.874;2024-03-29T06:51:20;6.57;;;1.60;;
14858;SDS011;7521;51.700;6.874;2024-03-29T06:54:25;3.58;;;1.10;;
14858;SDS011;7521;51.700;6.874;2024-03-29T06:57:31;6.00;;;1.37;;
14858;SDS011;7521;51.700;6.874;2024-03-29T07:00:37;4.17;;;1.40;;
14858;SDS011;7521;51.700;6.874;2024-03-29T07:03:42;2.50;;;1.10;;
14858;SDS011;7521;51.700;6.874;2024-03-29T07:06:48;6.50;;;1.33;;
14858;SDS011;7521;51.700;6.874;2024-03-29T07:09:56;4.07;;;1.10;;
14858;SDS011;7521;51.700;6.874;2024-03-29T07:13:01;7.07;;;1.20;;
14858;SDS011;7521;51.700;6.874;2024-03-29T07:16:06;4.87;;;1.10;;
14858;SDS011;7521;51.700;6.874;2024-03-29T07:19:12;5.23;;;1.10;;
14858;SDS011;7521;51.700;6.874;2024-03-29T07:22:17;6.57;;;1.00;;
14858;SDS011;7521;51.700;6.874;2024-03-29T07:25:23;3.53;;;1.60;;
14858;SDS011;7521;51.700;6.874;2024-03-29T07:28:28;5.93;;;1.50;;
14858;SDS011;7521;51.700;6.874;2024-03-29T07:31:34;4.30;;;1.40;;
14858;SDS011;7521;51.700;6.874;2024-03-29T07:34:39;3.13;;;1.10;;
14858;SDS011;7521;51.700;6.874;2024-03-29T07:37:45;2.93;;;1.27;;
14858;SDS011;7521;51.700;6.874;2024-03-29T07:40:55;3.13;;;1.30;;
14858;SDS011;7521;51.700;6.874;2024-03-29T07:44:01;2.50;;;1.27;;
14858;SDS011;7521;51.700;6.874;2024-03-29T07:47:08;2.37;;;1.60;;
14858;SDS011;7521;51.700;6.874;2024-03-29T07:50:13;2.97;;;1.30;;
14858;SDS011;7521;51.700;6.874;2024-03-29T07:53:18;3.43;;;1.50;;
14858;SDS011;7521;51.700;6.874;2024-03-29T07:56:24;5.70;;;2.03;;
14858;SDS011;7521;51.700;6.874;2024-03-29T07:59:30;3.27;;;1.40;;
14858;SDS011;7521;51.700;6.874;2024-03-29T08:02:36;2.72;;;1.52;;
14858;SDS011;7521;51.700;6.874;2024-03-29T08:05:43;5.67;;;2.00;;
14858;SDS011;7521;51.700;6.874;2024-03-29T08:08:58;5.63;;;1.70;;
14858;SDS011;7521;51.700;6.874;2024-03-29T08:12:03;5.07;;;1.70;;
14858;SDS011;7521;51.700;6.874;2024-03-29T08:15:09;3.77;;;1.60;;
14858;SDS011;7521;51.700;6.874;2024-03-29T08:18:14;6.23;;;1.63;;
14858;SDS011;7521;51.700;6.874;2024-03-29T08:21:19;4.87;;;1.90;;
14858;SDS011;7521;51.700;6.874;2024-03-29T08:24:24;2.93;;;1.30;;
14858;SDS011;7521;51.700;6.874;2024-03-29T08:27:29;5.80;;;1.27;;
14858;SDS011;7521;51.700;6.874;2024-03-29T08:30:35;6.27;;;1.00;;
14858;SDS011;7521;51.700;6.874;2024-03-29T08:33:40;2.60;;;1.40;;
14858;SDS011;7521;51.700;6.874;2024-03-29T08:36:46;2.77;;;1.30;;
14858;SDS011;7521;51.700;6.874;2024-03-29T08:39:52;4.30;;;1.27;;
14858;SDS011;7521;51.700;6.874;2024-03-29T08:42:57;7.00;;;1.70;;
14858;SDS011;7521;51.700;6.874;2024-03-29T08:46:02;3.17;;;1.33;;
14858;SDS011;7521;51.700;6.874;2024-03-29T08:49:08;2.83;;;1.20;;
14858;SDS011;7521;51.700;6.874;2024-03-29T08:52:13;5.83;;;1.50;;
14858;SDS011;7521;51.700;6.874;2024-03-29T08:55:20;4.53;;;1.30;;
14858;SDS011;7521;51.700;6.874;2024-03-29T08:58:25;3.27;;;1.37;;
14858;SDS011;7521;51.700;6.874;2024-03-29T09:01:30;3.77;;;1.83;;
14858;SDS011;7521;51.700;6.874;2024-03-29T09:04:35;3.97;;;1.40;;
14858;SDS011;7521;51.700;6.874;2024-03-29T09:07:41;2.47;;;1.27;;
14858;SDS011;7521;51.700;6.874;2024-03-29T09:10:46;4.27;;;1.63;;
14858;SDS011;7521;51.700;6.874;2024-03-29T09:13:51;3.20;;;1.67;;
14858;SDS011;7521;51.700;6.874;2024-03-29T09:16:58;4.10;;;2.13;;
14858;SDS011;7521;51.700;6.874;2024-03-29T09:20:04;5.17;;;2.90;;
14858;SDS011;7521;51.700;6.874;2024-03-29T09:23:09;6.03;;;2.97;;
14858;SDS011;7521;51.700;6.874;2024-03-29T09:26:15;3.93;;;2.80;;
14858;SDS011;7521;51.700;6.874;2024-03-29T09:29:20;4.47;;;2.87;;
14858;SDS011;7521;51.700;6.874;2024-03-29T09:32:25;3.07;;;2.00;;
14858;SDS011;7521;51.700;6.874;2024-03-29T09:35:31;5.47;;;2.55;;
14858;SDS011;7521;51.700;6.874;2024-03-29T09:38:36;7.03;;;2.67;;
14858;SDS011;7521;51.700;6.874;2024-03-29T09:41:41;4.15;;;2.72;;
14858;SDS011;7521;51.700;6.874;2024-03-29T09:44:50;5.00;;;2.80;;
14858;SDS011;7521;51.700;6.874;2024-03-29T09:47:55;3.53;;;2.50;;
14858;SDS011;7521;51.700;6.874;2024-03-29T09:51:01;4.57;;;3.00;;
14858;SDS011;7521;51.700;6.874;2024-03-29T09:54:07;4.93;;;2.90;;
14858;SDS011;7521;51.700;6.874;2024-03-29T09:57:17;5.93;;;3.27;;
14858;SDS011;7521;51.700;6.874;2024-03-29T10:00:23;4.30;;;3.10;;
14858;SDS011;7521;51.700;6.874;2024-03-29T10:03:28;6.30;;;3.03;;
14858;SDS011;7521;51.700;6.874;2024-03-29T10:06:34;3.73;;;2.53;;
14858;SDS011;7521;51.700;6.874;2024-03-29T10:09:41;4.47;;;2.50;;
14858;SDS011;7521;51.700;6.874;2024-03-29T10:12:47;5.23;;;3.07;;
14858;SDS011;7521;51.700;6.874;2024-03-29T10:15:52;7.60;;;3.50;;
14858;SDS011;7521;51.700;6.874;2024-03-29T10:19:00;7.17;;;3.40;;
14858;SDS011;7521;51.700;6.874;2024-03-29T10:22:06;4.80;;;2.77;;
14858;SDS011;7521;51.700;6.874;2024-03-29T10:25:14;5.03;;;3.13;;
14858;SDS011;7521;51.700;6.874;2024-03-29T10:28:20;6.07;;;2.47;;
14858;SDS011;7521;51.700;6.874;2024-03-29T10:31:25;4.83;;;2.80;;
14858;SDS011;7521;51.700;6.874;2024-03-29T10:34:30;5.83;;;2.60;;
14858;SDS011;7521;51.700;6.874;2024-03-29T10:37:41;8.80;;;2.07;;
14858;SDS011;7521;51.700;6.874;2024-03-29T10:40:48;4.63;;;2.10;;
14858;SDS011;7521;51.700;6.874;2024-03-29T10:43:54;2.43;;;1.70;;
14858;SDS011;7521;51.700;6.874;2024-03-29T10:47:01;4.00;;;1.97;;
14858;SDS011;7521;51.700;6.874;2024-03-29T10:50:07;3.57;;;2.10;;
14858;SDS011;7521;51.700;6.874;2024-03-29T10:53:13;4.37;;;2.17;;
14858;SDS011;7521;51.700;6.874;2024-03-29T10:56:18;5.60;;;1.90;;
14858;SDS011;7521;51.700;6.874;2024-03-29T10:59:44;3.67;;;1.83;;
14858;SDS011;7521;51.700;6.874;2024-03-29T11:06:05;3.97;;;2.17;;
14858;SDS011;7521;51.700;6.874;2024-03-29T11:09:12;2.50;;;1.70;;
14858;SDS011;7521;51.700;6.874;2024-03-29T11:12:18;3.80;;;2.20;;
14858;SDS011;7521;51.700;6.874;2024-03-29T11:15:30;1.77;;;1.23;;
14858;SDS011;7521;51.700;6.874;2024-03-29T11:18:36;4.57;;;1.57;;
14858;SDS011;7521;51.700;6.874;2024-03-29T11:21:42;2.87;;;1.40;;
14858;SDS011;7521;51.700;6.874;2024-03-29T11:24:50;2.83;;;1.57;;
14858;SDS011;7521;51.700;6.874;2024-03-29T11:28:03;3.90;;;1.67;;
14858;SDS011;7521;51.700;6.874;2024-03-29T11:31:08;6.70;;;1.50;;
14858;SDS011;7521;51.700;6.874;2024-03-29T11:34:14;3.27;;;1.30;;
14858;SDS011;7521;51.700;6.874;2024-03-29T11:37:19;3.63;;;1.50;;
14858;SDS011;7521;51.700;6.874;2024-03-29T11:40:29;3.17;;;1.47;;
14858;SDS011;7521;51.700;6.874;2024-03-29T11:43:35;2.77;;;1.10;;
14858;SDS011;7521;51.700;6.874;2024-03-29T11:46:40;6.57;;;1.43;;
14858;SDS011;7521;51.700;6.874;2024-03-29T11:49:54;2.30;;;1.23;;
14858;SDS011;7521;51.700;6.874;2024-03-29T11:53:02;3.10;;;1.23;;
14858;SDS011;7521;51.700;6.874;2024-03-29T11:56:07;2.33;;;0.93;;
14858;SDS011;7521;51.700;6.874;2024-03-29T11:59:12;2.40;;;0.97;;
14858;SDS011;7521;51.700;6.874;2024-03-29T12:02:18;2.03;;;1.10;;
14858;SDS011;7521;51.700;6.874;2024-03-29T12:05:23;2.03;;;1.00;;
14858;SDS011;7521;51.700;6.874;2024-03-29T12:08:29;4.13;;;1.37;;
14858;SDS011;7521;51.700;6.874;2024-03-29T12:11:35;3.13;;;0.93;;
14858;SDS011;7521;51.700;6.874;2024-03-29T12:14:41;1.35;;;1.00;;
14858;SDS011;7521;51.700;6.874;2024-03-29T12:17:55;3.25;;;0.70;;
14858;SDS011;7521;51.700;6.874;2024-03-29T12:21:00;1.60;;;0.80;;
14858;SDS011;7521;51.700;6.874;2024-03-29T12:24:06;1.65;;;0.82;;
14858;SDS011;7521;51.700;6.874;2024-03-29T12:27:12;3.23;;;0.90;;
14858;SDS011;7521;51.700;6.874;2024-03-29T12:30:17;3.47;;;1.40;;
14858;SDS011;7521;51.700;6.874;2024-03-29T12:33:23;3.33;;;1.10;;
14858;SDS011;7521;51.700;6.874;2024-03-29T12:36:28;1.40;;;1.07;;
14858;SDS011;7521;51.700;6.874;2024-03-29T12:39:36;3.80;;;1.30;;
14858;SDS011;7521;51.700;6.874;2024-03-29T12:42:44;2.17;;;0.70;;
14858;SDS011;7521;51.700;6.874;2024-03-29T12:45:50;2.20;;;1.10;;
14858;SDS011;7521;51.700;6.874;2024-03-29T12:48:58;3.80;;;1.13;;
14858;SDS011;7521;51.700;6.874;2024-03-29T12:52:05;2.90;;;0.90;;
14858;SDS011;7521;51.700;6.874;2024-03-29T12:55:10;3.33;;;1.37;;
14858;SDS011;7521;51.700;6.874;2024-03-29T12:58:16;3.77;;;1.30;;
14858;SDS011;7521;51.700;6.874;2024-03-29T13:01:22;3.77;;;2.27;;
14858;SDS011;7521;51.700;6.874;2024-03-29T13:04:28;3.77;;;1.33;;
14858;SDS011;7521;51.700;6.874;2024-03-29T13:07:33;1.73;;;1.08;;
14858;SDS011;7521;51.700;6.874;2024-03-29T13:10:38;2.63;;;1.03;;
14858;SDS011;7521;51.700;6.874;2024-03-29T13:13:44;1.40;;;1.00;;
14858;SDS011;7521;51.700;6.874;2024-03-29T13:16:49;1.30;;;0.80;;
14858;SDS011;7521;51.700;6.874;2024-03-29T13:19:54;1.13;;;0.80;;
14858;SDS011;7521;51.700;6.874;2024-03-29T13:22:59;0.90;;;0.70;;
14858;SDS011;7521;51.700;6.874;2024-03-29T13:26:05;1.90;;;0.90;;
14858;SDS011;7521;51.700;6.874;2024-03-29T13:29:11;2.53;;;0.80;;
14858;SDS011;7521;51.700;6.874;2024-03-29T13:32:18;1.27;;;0.50;;
14858;SDS011;7521;51.700;6.874;2024-03-29T13:35:24;1.23;;;0.70;;
14858;SDS011;7521;51.700;6.874;2024-03-29T13:38:29;2.47;;;0.90;;
14858;SDS011;7521;51.700;6.874;2024-03-29T13:41:34;2.67;;;1.13;;
14858;SDS011;7521;51.700;6.874;2024-03-29T13:44:42;3.17;;;1.33;;
14858;SDS011;7521;51.700;6.874;2024-03-29T13:47:48;2.55;;;1.05;;
14858;SDS011;7521;51.700;6.874;2024-03-29T13:50:53;2.17;;;0.90;;
14858;SDS011;7521;51.700;6.874;2024-03-29T13:53:58;2.00;;;0.77;;
14858;SDS011;7521;51.700;6.874;2024-03-29T13:57:04;2.35;;;1.00;;
14858;SDS011;7521;51.700;6.874;2024-03-29T14:00:09;2.50;;;0.70;;
14858;SDS011;7521;51.700;6.874;2024-03-29T14:03:18;1.00;;;0.50;;
14858;SDS011;7521;51.700;6.874;2024-03-29T14:06:24;2.73;;;0.80;;
14858;SDS011;7521;51.700;6.874;2024-03-29T14:09:29;2.07;;;0.80;;
14858;SDS011;7521;51.700;6.874;2024-03-29T14:12:34;1.00;;;0.57;;
14858;SDS011;7521;51.700;6.874;2024-03-29T14:15:40;1.80;;;0.97;;
14858;SDS011;7521;51.700;6.874;2024-03-29T14:18:45;2.03;;;0.97;;
14858;SDS011;7521;51.700;6.874;2024-03-29T14:21:50;4.35;;;1.08;;
14858;SDS011;7521;51.700;6.874;2024-03-29T14:24:55;3.00;;;0.93;;
14858;SDS011;7521;51.700;6.874;2024-03-29T14:28:01;4.18;;;1.17;;
14858;SDS011;7521;51.700;6.874;2024-03-29T14:31:07;6.60;;;1.00;;
14858;SDS011;7521;51.700;6.874;2024-03-29T14:34:13;1.60;;;0.90;;
14858;SDS011;7521;51.700;6.874;2024-03-29T14:37:18;3.17;;;0.90;;
14858;SDS011;7521;51.700;6.874;2024-03-29T14:40:23;1.95;;;0.68;;
14858;SDS011;7521;51.700;6.874;2024-03-29T14:43:29;1.17;;;0.60;;
14858;SDS011;7521;51.700;6.874;2024-03-29T14:46:34;4.15;;;1.00;;
14858;SDS011;7521;51.700;6.874;2024-03-29T14:49:42;1.53;;;0.87;;
14858;SDS011;7521;51.700;6.874;2024-03-29T14:52:47;2.17;;;0.60;;
14858;SDS011;7521;51.700;6.874;2024-03-29T14:55:52;1.10;;;0.65;;
14858;SDS011;7521;51.700;6.874;2024-03-29T14:59:02;1.57;;;0.70;;
14858;SDS011;7521;51.700;6.874;2024-03-29T15:02:08;2.00;;;0.60;;
14858;SDS011;7521;51.700;6.874;2024-03-29T15:05:13;1.52;;;0.55;;
14858;SDS011;7521;51.700;6.874;2024-03-29T15:08:18;1.60;;;0.88;;
14858;SDS011;7521;51.700;6.874;2024-03-29T15:11:23;1.98;;;0.85;;
14858;SDS011;7521;51.700;6.874;2024-03-29T15:14:29;1.80;;;0.90;;
14858;SDS011;7521;51.700;6.874;2024-03-29T15:17:34;1.97;;;0.50;;
14858;SDS011;7521;51.700;6.874;2024-03-29T15:20:40;3.00;;;0.50;;
14858;SDS011;7521;51.700;6.874;2024-03-29T15:23:45;2.00;;;0.60;;
14858;SDS011;7521;51.700;6.874;2024-03-29T15:26:50;2.25;;;0.55;;
14858;SDS011;7521;51.700;6.874;2024-03-29T15:29:58;1.87;;;0.60;;
14858;SDS011;7521;51.700;6.874;2024-03-29T15:33:03;2.70;;;0.67;;
14858;SDS011;7521;51.700;6.874;2024-03-29T15:36:09;1.93;;;0.63;;
14858;SDS011;7521;51.700;6.874;2024-03-29T15:39:14;2.60;;;0.50;;
14858;SDS011;7521;51.700;6.874;2024-03-29T15:42:20;1.30;;;0.60;;
14858;SDS011;7521;51.700;6.874;2024-03-29T15:45:26;1.47;;;0.63;;
14858;SDS011;7521;51.700;6.874;2024-03-29T15:48:31;2.87;;;0.60;;
14858;SDS011;7521;51.700;6.874;2024-03-29T15:51:37;1.70;;;0.47;;
14858;SDS011;7521;51.700;6.874;2024-03-29T15:54:42;0.77;;;0.52;;
14858;SDS011;7521;51.700;6.874;2024-03-29T15:57:47;2.45;;;0.60;;
14858;SDS011;7521;51.700;6.874;2024-03-29T16:00:52;1.00;;;0.60;;
14858;SDS011;7521;51.700;6.874;2024-03-29T16:03:58;1.23;;;0.67;;
14858;SDS011;7521;51.700;6.874;2024-03-29T16:07:03;1.05;;;0.70;;
14858;SDS011;7521;51.700;6.874;2024-03-29T16:10:08;1.33;;;0.60;;
14858;SDS011;7521;51.700;6.874;2024-03-29T16:13:13;1.00;;;0.50;;
14858;SDS011;7521;51.700;6.874;2024-03-29T16:16:19;1.25;;;0.63;;
14858;SDS011;7521;51.700;6.874;2024-03-29T16:19:24;1.20;;;0.60;;
14858;SDS011;7521;51.700;6.874;2024-03-29T16:22:29;2.33;;;0.60;;
14858;SDS011;7521;51.700;6.874;2024-03-29T16:25:35;1.27;;;0.67;;
14858;SDS011;7521;51.700;6.874;2024-03-29T16:28:41;2.03;;;0.70;;
14858;SDS011;7521;51.700;6.874;2024-03-29T16:31:46;1.80;;;0.70;;
14858;SDS011;7521;51.700;6.874;2024-03-29T16:34:52;2.13;;;0.50;;
14858;SDS011;7521;51.700;6.874;2024-03-29T16:37:58;1.65;;;0.50;;
14858;SDS011;7521;51.700;6.874;2024-03-29T16:41:03;0.67;;;0.33;;
14858;SDS011;7521;51.700;6.874;2024-03-29T16:44:08;1.13;;;0.50;;
14858;SDS011;7521;51.700;6.874;2024-03-29T16:47:13;2.30;;;0.70;;
14858;SDS011;7521;51.700;6.874;2024-03-29T16:50:19;1.70;;;0.47;;
14858;SDS011;7521;51.700;6.874;2024-03-29T16:53:24;1.77;;;0.60;;
14858;SDS011;7521;51.700;6.874;2024-03-29T16:56:29;1.20;;;0.60;;
14858;SDS011;7521;51.700;6.874;2024-03-29T16:59:34;2.25;;;0.65;;
14858;SDS011;7521;51.700;6.874;2024-03-29T17:02:40;1.73;;;0.80;;
14858;SDS011;7521;51.700;6.874;2024-03-29T17:05:46;4.00;;;1.00;;
14858;SDS011;7521;51.700;6.874;2024-03-29T17:08:51;1.67;;;0.50;;
14858;SDS011;7521;51.700;6.874;2024-03-29T17:11:56;1.98;;;0.40;;
14858;SDS011;7521;51.700;6.874;2024-03-29T17:15:01;1.23;;;0.70;;
14858;SDS011;7521;51.700;6.874;2024-03-29T17:18:06;1.00;;;0.50;;
14858;SDS011;7521;51.700;6.874;2024-03-29T17:21:12;0.88;;;0.57;;
14858;SDS011;7521;51.700;6.874;2024-03-29T17:24:17;1.87;;;0.40;;
14858;SDS011;7521;51.700;6.874;2024-03-29T17:27:22;2.10;;;0.50;;
14858;SDS011;7521;51.700;6.874;2024-03-29T17:30:27;1.63;;;0.57;;
14858;SDS011;7521;51.700;6.874;2024-03-29T17:33:32;2.80;;;0.70;;
14858;SDS011;7521;51.700;6.874;2024-03-29T17:36:38;1.63;;;0.85;;
14858;SDS011;7521;51.700;6.874;2024-03-29T17:39:43;1.73;;;0.80;;
14858;SDS011;7521;51.700;6.874;2024-03-29T17:42:48;1.90;;;0.70;;
14858;SDS011;7521;51.700;6.874;2024-03-29T17:45:53;1.70;;;0.90;;
14858;SDS011;7521;51.700;6.874;2024-03-29T17:48:59;2.25;;;0.80;;
14858;SDS011;7521;51.700;6.874;2024-03-29T17:52:04;2.23;;;0.70;;
14858;SDS011;7521;51.700;6.874;2024-03-29T17:55:09;2.87;;;1.27;;
14858;SDS011;7521;51.700;6.874;2024-03-29T17:58:14;0.90;;;0.70;;
14858;SDS011;7521;51.700;6.874;2024-03-29T18:01:20;2.53;;;0.60;;
14858;SDS011;7521;51.700;6.874;2024-03-29T18:04:25;2.30;;;0.90;;
14858;SDS011;7521;51.700;6.874;2024-03-29T18:07:30;1.67;;;1.00;;
14858;SDS011;7521;51.700;6.874;2024-03-29T18:10:35;1.58;;;1.00;;
14858;SDS011;7521;51.700;6.874;2024-03-29T18:13:40;2.17;;;0.70;;
14858;SDS011;7521;51.700;6.874;2024-03-29T18:16:46;1.83;;;0.83;;
14858;SDS011;7521;51.700;6.874;2024-03-29T18:19:52;2.50;;;0.90;;
14858;SDS011;7521;51.700;6.874;2024-03-29T18:22:58;1.77;;;0.90;;
14858;SDS011;7521;51.700;6.874;2024-03-29T18:26:04;1.90;;;0.60;;
14858;SDS011;7521;51.700;6.874;2024-03-29T18:29:09;0.80;;;0.60;;
14858;SDS011;7521;51.700;6.874;2024-03-29T18:32:14;2.50;;;1.10;;
14858;SDS011;7521;51.700;6.874;2024-03-29T18:35:20;2.10;;;0.90;;
14858;SDS011;7521;51.700;6.874;2024-03-29T18:38:25;1.13;;;0.80;;
14858;SDS011;7521;51.700;6.874;2024-03-29T18:41:30;2.40;;;1.17;;
14858;SDS011;7521;51.700;6.874;2024-03-29T18:44:37;1.13;;;0.70;;
14858;SDS011;7521;51.700;6.874;2024-03-29T18:47:42;1.97;;;0.93;;
14858;SDS011;7521;51.700;6.874;2024-03-29T18:50:54;2.33;;;1.00;;
14858;SDS011;7521;51.700;6.874;2024-03-29T18:53:59;1.50;;;0.80;;
14858;SDS011;7521;51.700;6.874;2024-03-29T18:57:04;2.47;;;1.10;;
14858;SDS011;7521;51.700;6.874;2024-03-29T19:00:10;2.27;;;0.97;;